createdAt,value
2018-12-18T00:01:54.260Z,40.03
2018-12-18T00:04:22.497Z,37.10
2018-12-18T00:06:51.096Z,39.10
2018-12-18T00:09:19.276Z,42.30
2018-12-18T00:11:47.508Z,38.67
2018-12-18T00:14:15.682Z,37.00
2018-12-18T00:16:43.856Z,37.40
2018-12-18T00:19:12.084Z,37.30
2018-12-18T00:21:40.256Z,40.23
2018-12-18T00:24:08.475Z,37.27
2018-12-18T00:26:36.700Z,41.00
2018-12-18T00:29:04.920Z,35.63
2018-12-18T00:31:35.548Z,36.67
2018-12-18T00:34:03.852Z,40.10
2018-12-18T00:36:32.031Z,41.20
2018-12-18T00:39:00.216Z,43.10
2018-12-18T00:41:28.439Z,38.63
2018-12-18T00:43:56.664Z,44.07
2018-12-18T00:46:24.891Z,43.07
2018-12-18T00:48:53.120Z,38.90
2018-12-18T00:51:21.328Z,43.97
2018-12-18T00:53:49.546Z,47.20
2018-12-18T00:56:17.764Z,47.20
2018-12-18T00:58:45.976Z,48.83
2018-12-18T01:01:14.202Z,44.40
2018-12-18T01:03:42.405Z,38.63
2018-12-18T01:06:10.636Z,45.80
2018-12-18T01:08:38.818Z,48.13
2018-12-18T01:11:07.061Z,40.20
2018-12-18T01:13:35.268Z,48.67
2018-12-18T01:16:03.436Z,45.80
2018-12-18T01:18:31.668Z,45.30
2018-12-18T01:20:59.925Z,47.87
2018-12-18T01:23:28.124Z,61.53
2018-12-18T01:25:56.305Z,52.67
2018-12-18T01:28:24.528Z,59.60
2018-12-18T01:30:52.708Z,52.33
2018-12-18T01:33:20.926Z,51.43
2018-12-18T01:35:49.251Z,47.40
2018-12-18T01:38:17.455Z,56.40
2018-12-18T01:40:45.700Z,51.80
2018-12-18T01:43:13.871Z,46.70
2018-12-18T01:45:42.108Z,55.97
2018-12-18T01:48:10.293Z,46.60
2018-12-18T01:50:38.517Z,53.37
2018-12-18T01:53:06.720Z,50.80
2018-12-18T01:55:34.972Z,44.80
2018-12-18T01:58:03.149Z,56.70
2018-12-18T02:00:31.377Z,50.40
2018-12-18T02:02:59.548Z,42.67
2018-12-18T02:05:27.796Z,58.80
2018-12-18T02:07:55.977Z,50.50
2018-12-18T02:10:24.189Z,44.63
2018-12-18T02:12:52.476Z,47.00
2018-12-18T02:15:20.682Z,49.53
2018-12-18T02:17:48.858Z,46.00
2018-12-18T02:20:17.073Z,51.00
2018-12-18T02:22:45.251Z,49.87
2018-12-18T02:25:13.516Z,41.93
2018-12-18T02:27:41.732Z,50.03
2018-12-18T02:30:10.179Z,47.33
2018-12-18T02:32:38.449Z,44.57
2018-12-18T02:35:06.784Z,41.77
2018-12-18T02:37:34.966Z,46.03
2018-12-18T02:40:03.381Z,41.67
2018-12-18T02:42:31.584Z,48.47
2018-12-18T02:44:59.888Z,41.77
2018-12-18T02:47:28.120Z,43.97
2018-12-18T02:49:56.292Z,42.77
2018-12-18T02:52:24.507Z,46.00
2018-12-18T02:54:52.759Z,46.30
2018-12-18T02:57:21.008Z,43.70
2018-12-18T02:59:49.244Z,43.63
2018-12-18T03:02:17.788Z,46.27
2018-12-18T03:04:46.099Z,44.43
2018-12-18T03:07:14.276Z,40.37
2018-12-18T03:09:42.617Z,39.60
2018-12-18T03:12:10.800Z,40.43
2018-12-18T03:14:39.018Z,46.30
2018-12-18T03:17:07.206Z,46.40
2018-12-18T03:19:35.422Z,49.73
2018-12-18T03:22:03.684Z,50.10
2018-12-18T03:24:31.913Z,52.80
2018-12-18T03:27:00.164Z,49.70
2018-12-18T03:29:28.346Z,48.57
2018-12-18T03:32:00.763Z,47.77
2018-12-18T03:34:28.937Z,49.20
2018-12-18T03:36:57.169Z,50.63
2018-12-18T03:39:25.381Z,45.53
2018-12-18T03:41:53.717Z,53.53
2018-12-18T03:44:21.884Z,49.40
2018-12-18T03:46:50.405Z,50.77
2018-12-18T03:49:18.609Z,44.93
2018-12-18T03:51:46.796Z,53.80
2018-12-18T03:54:15.113Z,43.57
2018-12-18T03:56:43.347Z,48.70
2018-12-18T03:59:11.560Z,52.67
2018-12-18T04:01:39.750Z,50.07
2018-12-18T04:04:07.988Z,49.10
2018-12-18T04:06:36.208Z,47.10
2018-12-18T04:09:07.102Z,48.13
2018-12-18T04:11:37.976Z,49.30
2018-12-18T04:14:06.188Z,45.20
2018-12-18T04:16:34.430Z,47.97
2018-12-18T04:19:02.619Z,44.73
2018-12-18T04:21:30.824Z,46.30
2018-12-18T04:23:59.039Z,41.83
2018-12-18T04:26:27.284Z,43.63
2018-12-18T04:28:55.445Z,49.57
2018-12-18T04:31:23.662Z,43.90
2018-12-18T04:33:51.863Z,44.00
2018-12-18T04:36:20.062Z,50.97
2018-12-18T04:38:48.356Z,47.23
2018-12-18T04:41:16.548Z,54.40
2018-12-18T04:43:44.784Z,48.30
2018-12-18T04:46:13.000Z,50.27
2018-12-18T04:48:41.220Z,48.40
2018-12-18T04:51:09.433Z,49.57
2018-12-18T04:53:37.622Z,49.10
2018-12-18T04:56:06.040Z,47.83
2018-12-18T04:58:34.332Z,43.63
2018-12-18T05:01:02.638Z,44.87
2018-12-18T05:03:30.823Z,45.03
2018-12-18T05:05:59.055Z,43.57
2018-12-18T05:08:27.220Z,43.37
2018-12-18T05:10:55.448Z,44.47
2018-12-18T05:13:23.625Z,43.97
2018-12-18T05:15:51.849Z,45.00
2018-12-18T05:18:20.028Z,46.13
2018-12-18T05:20:48.267Z,46.40
2018-12-18T05:23:16.487Z,45.80
2018-12-18T05:25:44.669Z,46.90
2018-12-18T05:28:12.848Z,43.97
2018-12-18T05:30:41.088Z,45.90
2018-12-18T05:33:09.312Z,47.10
2018-12-18T05:35:37.532Z,46.80
2018-12-18T05:38:05.720Z,43.57
2018-12-18T05:40:33.888Z,45.40
2018-12-18T05:43:02.164Z,47.83
2018-12-18T05:45:30.332Z,45.57
2018-12-18T05:47:58.548Z,45.97
2018-12-18T05:50:26.773Z,48.67
2018-12-18T05:52:54.929Z,46.50
2018-12-18T05:55:23.152Z,48.20
2018-12-18T05:57:51.320Z,46.67
2018-12-18T06:00:19.513Z,45.10
2018-12-18T06:02:47.872Z,47.17
2018-12-18T06:05:16.073Z,48.47
2018-12-18T06:07:44.241Z,47.60
2018-12-18T06:10:12.464Z,50.70
2018-12-18T06:12:40.634Z,47.97
2018-12-18T06:15:08.812Z,47.47
2018-12-18T06:17:37.049Z,49.17
2018-12-18T06:20:05.564Z,51.90
2018-12-18T06:22:33.808Z,47.93
2018-12-18T06:25:02.000Z,48.90
2018-12-18T06:27:30.224Z,46.63
2018-12-18T06:29:58.456Z,49.13
2018-12-18T06:32:26.684Z,46.60
2018-12-18T06:34:54.897Z,41.47
2018-12-18T06:37:23.061Z,43.80
2018-12-18T06:39:51.291Z,42.80
2018-12-18T06:42:19.580Z,40.77
2018-12-18T06:44:47.805Z,41.70
2018-12-18T06:47:16.022Z,39.67
2018-12-18T06:49:44.217Z,38.17
2018-12-18T06:52:12.429Z,37.90
2018-12-18T06:54:40.680Z,38.87
2018-12-18T06:57:08.862Z,35.80
2018-12-18T06:59:37.035Z,34.67
2018-12-18T07:02:05.377Z,33.70
2018-12-18T07:04:33.679Z,35.60
2018-12-18T07:07:01.880Z,33.57
2018-12-18T07:09:30.124Z,31.93
2018-12-18T07:11:58.304Z,32.70
2018-12-18T07:14:26.551Z,31.00
2018-12-18T07:16:54.733Z,32.40
2018-12-18T07:19:22.949Z,31.90
2018-12-18T07:21:51.159Z,29.40
2018-12-18T07:24:19.492Z,27.70
2018-12-18T07:26:47.668Z,28.47
2018-12-18T07:29:15.913Z,27.73
2018-12-18T07:31:44.132Z,28.70
2018-12-18T07:34:12.426Z,26.97
2018-12-18T07:36:40.632Z,27.53
2018-12-18T07:39:09.243Z,29.30
2018-12-18T07:41:37.439Z,29.97
2018-12-18T07:44:05.692Z,29.00
2018-12-18T07:46:33.908Z,30.53
2018-12-18T07:49:02.080Z,27.97
2018-12-18T07:51:30.289Z,26.47
2018-12-18T07:53:58.469Z,26.53
2018-12-18T07:56:26.696Z,27.40
2018-12-18T07:58:54.971Z,26.73
2018-12-18T08:01:23.181Z,24.73
2018-12-18T08:03:51.387Z,24.50
2018-12-18T08:06:19.560Z,24.33
2018-12-18T08:08:47.786Z,24.83
2018-12-18T08:11:15.987Z,25.27
2018-12-18T08:13:44.200Z,25.07
2018-12-18T08:16:12.476Z,25.57
2018-12-18T08:18:40.656Z,28.43
2018-12-18T08:21:08.920Z,28.70
2018-12-18T08:23:37.144Z,26.07
2018-12-18T08:26:05.415Z,28.03
2018-12-18T08:28:33.589Z,30.13
2018-12-18T08:31:01.806Z,30.10
2018-12-18T08:33:30.068Z,29.83
2018-12-18T08:35:58.263Z,35.60
2018-12-18T08:38:26.444Z,37.40
2018-12-18T08:40:54.712Z,39.47
2018-12-18T08:43:22.920Z,31.27
2018-12-18T08:45:51.084Z,34.23
2018-12-18T08:48:19.305Z,31.60
2018-12-18T08:50:47.478Z,31.40
2018-12-18T08:53:15.676Z,31.20
2018-12-18T08:55:44.011Z,33.70
2018-12-18T08:58:12.192Z,37.20
2018-12-18T09:00:40.454Z,33.90
2018-12-18T09:03:08.612Z,35.40
2018-12-18T09:05:42.982Z,37.13
2018-12-18T09:08:07.149Z,37.83
2018-12-18T09:10:39.777Z,36.13
2018-12-18T09:13:05.683Z,35.30
2018-12-18T09:15:39.161Z,36.00
2018-12-18T09:18:07.339Z,35.20
2018-12-18T09:20:35.512Z,36.97
2018-12-18T09:23:03.733Z,38.43
2018-12-18T09:25:32.048Z,35.30
2018-12-18T09:28:00.268Z,36.77
2018-12-18T09:30:28.476Z,33.00
2018-12-18T09:32:56.682Z,33.40
2018-12-18T09:35:24.864Z,31.83
2018-12-18T09:37:58.305Z,32.00
2018-12-18T09:40:28.470Z,30.93
2018-12-18T09:43:01.992Z,29.50
2018-12-18T09:45:30.192Z,32.33
2018-12-18T09:47:58.364Z,34.33
2018-12-18T09:50:26.576Z,30.10
2018-12-18T09:52:54.748Z,31.47
2018-12-18T09:55:23.056Z,31.07
2018-12-18T09:57:56.512Z,33.43
2018-12-18T10:00:24.712Z,35.73
2018-12-18T10:02:52.875Z,34.83
2018-12-18T10:05:21.092Z,40.80
2018-12-18T10:07:49.348Z,35.63
2018-12-18T10:10:17.592Z,35.47
2018-12-18T10:12:51.113Z,36.20
2018-12-18T10:15:19.319Z,38.40
2018-12-18T10:17:47.490Z,36.73
2018-12-18T10:20:15.701Z,38.43
2018-12-18T10:22:43.904Z,35.30
2018-12-18T10:25:12.125Z,36.57
2018-12-18T10:27:40.344Z,37.23
2018-12-18T10:30:08.828Z,35.37
2018-12-18T10:32:37.099Z,37.73
2018-12-18T10:35:05.848Z,37.67
2018-12-18T10:37:34.060Z,34.60
2018-12-18T10:40:02.280Z,35.90
2018-12-18T10:42:30.483Z,37.03
2018-12-18T10:44:58.652Z,35.17
2018-12-18T10:47:26.860Z,34.23
2018-12-18T10:49:55.059Z,32.03
2018-12-18T10:52:23.229Z,33.87
2018-12-18T10:54:52.492Z,34.10
2018-12-18T10:57:20.814Z,33.77
2018-12-18T10:59:49.056Z,41.40
2018-12-18T11:02:17.232Z,38.30
2018-12-18T11:04:45.435Z,41.50
2018-12-18T11:07:13.606Z,36.87
2018-12-18T11:09:41.821Z,32.97
2018-12-18T11:12:10.043Z,32.93
2018-12-18T11:14:38.216Z,33.40
2018-12-18T11:17:06.496Z,32.00
2018-12-18T11:19:34.699Z,33.50
2018-12-18T11:22:02.875Z,33.87
2018-12-18T11:24:31.101Z,37.90
2018-12-18T11:26:59.364Z,35.63
2018-12-18T11:29:27.564Z,32.70
2018-12-18T11:31:55.780Z,35.10
2018-12-18T11:34:23.991Z,35.80
2018-12-18T11:36:52.192Z,35.80
2018-12-18T11:39:20.401Z,34.97
2018-12-18T11:41:48.613Z,35.80
2018-12-18T11:44:16.771Z,41.00
2018-12-18T11:46:45.018Z,37.50
2018-12-18T11:49:13.182Z,36.53
2018-12-18T11:51:41.401Z,35.63
2018-12-18T11:54:09.660Z,35.83
2018-12-18T11:56:37.875Z,36.13
2018-12-18T11:59:06.049Z,36.03
2018-12-18T12:01:34.214Z,34.83
2018-12-18T12:04:02.433Z,38.23
2018-12-18T12:06:30.716Z,36.03
2018-12-18T12:08:58.937Z,36.17
2018-12-18T12:11:27.117Z,36.80
2018-12-18T12:13:55.284Z,36.30
2018-12-18T12:16:23.497Z,35.60
2018-12-18T12:18:51.699Z,36.10
2018-12-18T12:21:19.980Z,37.63
2018-12-18T12:23:48.187Z,36.90
2018-12-18T12:26:21.579Z,38.03
2018-12-18T12:28:49.791Z,38.43
2018-12-18T12:31:18.012Z,36.47
2018-12-18T12:33:46.184Z,35.77
2018-12-18T12:36:14.385Z,39.37
2018-12-18T12:38:42.549Z,47.57
2018-12-18T12:41:10.775Z,52.37
2018-12-18T12:43:38.944Z,35.40
2018-12-18T12:46:07.191Z,34.93
2018-12-18T12:48:40.708Z,38.27
2018-12-18T12:51:08.925Z,39.63
2018-12-18T12:53:37.092Z,40.00
2018-12-18T12:56:05.303Z,36.60
2018-12-18T12:58:33.468Z,37.60
2018-12-18T13:01:01.672Z,37.83
2018-12-18T13:03:29.844Z,38.50
2018-12-18T13:05:58.060Z,38.77
2018-12-18T13:08:26.227Z,37.77
2018-12-18T13:10:54.437Z,39.20
2018-12-18T13:13:22.645Z,41.00
2018-12-18T13:15:50.840Z,42.30
2018-12-18T13:18:19.041Z,43.63
2018-12-18T13:20:47.361Z,42.73
2018-12-18T13:23:15.531Z,39.73
2018-12-18T13:25:43.733Z,39.20
2018-12-18T13:28:11.910Z,36.50
2018-12-18T13:30:40.124Z,37.50
2018-12-18T13:33:08.340Z,34.87
2018-12-18T13:35:36.527Z,34.90
2018-12-18T13:38:05.095Z,34.00
2018-12-18T13:40:33.308Z,35.30
2018-12-18T13:43:01.530Z,35.80
2018-12-18T13:45:29.736Z,35.37
2018-12-18T13:47:57.909Z,35.90
2018-12-18T13:50:26.111Z,36.40
2018-12-18T13:52:54.361Z,36.90
2018-12-18T13:55:22.700Z,38.47
2018-12-18T13:57:50.952Z,46.47
2018-12-18T14:00:19.170Z,45.70
2018-12-18T14:02:47.339Z,42.30
2018-12-18T14:05:15.513Z,43.07
2018-12-18T14:07:43.728Z,39.73
2018-12-18T14:10:12.032Z,41.23
2018-12-18T14:12:40.245Z,48.57
2018-12-18T14:15:08.836Z,44.33
2018-12-18T14:17:37.044Z,39.87
2018-12-18T14:20:05.880Z,41.67
2018-12-18T14:22:34.053Z,42.00
2018-12-18T14:25:02.216Z,42.37
2018-12-18T14:27:30.457Z,42.50
2018-12-18T14:29:58.655Z,42.20
2018-12-18T14:32:26.832Z,40.90
2018-12-18T14:34:55.140Z,42.37
2018-12-18T14:37:23.352Z,42.37
2018-12-18T14:39:51.557Z,42.50
2018-12-18T14:42:19.750Z,44.33
2018-12-18T14:44:47.960Z,42.63
2018-12-18T14:47:16.164Z,44.43
2018-12-18T14:49:44.376Z,44.97
2018-12-18T14:52:12.584Z,43.73
2018-12-18T14:54:40.849Z,44.80
2018-12-18T14:57:09.067Z,42.73
2018-12-18T14:59:37.489Z,45.07
2018-12-18T15:02:05.652Z,42.70
2018-12-18T15:04:33.896Z,45.57
2018-12-18T15:07:03.033Z,40.80
2018-12-18T15:09:31.508Z,43.37
2018-12-18T15:11:59.681Z,41.80
2018-12-18T15:14:27.892Z,46.57
2018-12-18T15:16:56.067Z,44.40
2018-12-18T15:19:24.361Z,44.13
2018-12-18T15:21:52.583Z,42.80
2018-12-18T15:24:20.748Z,45.70
2018-12-18T15:26:49.008Z,43.53
2018-12-18T15:29:17.185Z,47.03
2018-12-18T15:31:45.344Z,45.77
2018-12-18T15:34:13.557Z,45.60
2018-12-18T15:36:41.783Z,44.33
2018-12-18T15:39:10.006Z,45.30
2018-12-18T15:41:38.181Z,45.77
2018-12-18T15:44:06.496Z,45.20
2018-12-18T15:46:34.731Z,42.00
2018-12-18T15:49:02.900Z,40.87
2018-12-18T15:51:31.068Z,40.13
2018-12-18T15:53:59.361Z,40.57
2018-12-18T15:56:27.556Z,41.47
2018-12-18T15:58:55.769Z,43.20
2018-12-18T16:01:24.343Z,42.40
2018-12-18T16:03:52.545Z,39.60
2018-12-18T16:06:20.760Z,40.90
2018-12-18T16:08:48.940Z,40.50
2018-12-18T16:11:17.156Z,40.63
2018-12-18T16:13:45.424Z,41.10
2018-12-18T16:16:13.796Z,40.43
2018-12-18T16:18:42.000Z,42.67
2018-12-18T16:21:10.181Z,41.37
2018-12-18T16:23:38.390Z,44.37
2018-12-18T16:26:06.609Z,44.93
2018-12-18T16:28:34.771Z,42.67
2018-12-18T16:31:02.992Z,43.77
2018-12-18T16:33:31.196Z,43.30
2018-12-18T16:35:59.454Z,45.80
2018-12-18T16:38:27.620Z,45.70
2018-12-18T16:40:55.792Z,46.77
2018-12-18T16:43:24.014Z,50.20
2018-12-18T16:45:52.195Z,46.97
2018-12-18T16:48:20.404Z,46.20
2018-12-18T16:50:48.694Z,42.80
2018-12-18T16:53:16.927Z,48.20
2018-12-18T16:55:45.161Z,43.03
2018-12-18T16:58:13.337Z,43.40
2018-12-18T17:00:41.548Z,43.97
2018-12-18T17:03:09.716Z,45.60
2018-12-18T17:05:37.937Z,43.93
2018-12-18T17:08:06.103Z,43.57
2018-12-18T17:10:34.683Z,40.47
2018-12-18T17:13:02.861Z,42.73
2018-12-18T17:15:31.116Z,43.47
2018-12-18T17:17:59.358Z,49.50
2018-12-18T17:20:27.620Z,53.23
2018-12-18T17:22:55.795Z,50.40
2018-12-18T17:25:23.964Z,45.77
2018-12-18T17:27:52.180Z,43.23
2018-12-18T17:30:20.353Z,42.37
2018-12-18T17:32:48.561Z,39.67
2018-12-18T17:35:16.725Z,40.13
2018-12-18T17:37:44.984Z,36.87
2018-12-18T17:40:13.153Z,38.90
2018-12-18T17:42:41.362Z,36.67
2018-12-18T17:45:09.532Z,38.70
2018-12-18T17:47:37.748Z,37.43
2018-12-18T17:50:07.144Z,37.67
2018-12-18T17:52:35.356Z,37.37
2018-12-18T17:55:03.753Z,38.97
2018-12-18T17:57:31.923Z,44.90
2018-12-18T18:00:00.142Z,43.80
2018-12-18T18:02:28.556Z,44.27
2018-12-18T18:04:56.749Z,42.33
2018-12-18T18:07:24.951Z,41.23
2018-12-18T18:09:53.128Z,48.30
2018-12-18T18:12:21.336Z,45.40
2018-12-18T18:14:49.507Z,42.87
2018-12-18T18:17:17.708Z,42.77
2018-12-18T18:19:46.128Z,43.37
2018-12-18T18:22:14.328Z,44.93
2018-12-18T18:24:42.501Z,44.90
2018-12-18T18:27:10.792Z,45.13
2018-12-18T18:29:38.965Z,45.73
2018-12-18T18:32:07.178Z,41.47
2018-12-18T18:34:35.392Z,41.50
2018-12-18T18:37:03.612Z,39.13
2018-12-18T18:39:31.788Z,39.80
2018-12-18T18:41:59.952Z,39.67
2018-12-18T18:44:28.156Z,52.80
2018-12-18T18:46:56.331Z,39.83
2018-12-18T18:49:24.552Z,38.50
2018-12-18T18:51:52.716Z,39.17
2018-12-18T18:54:20.887Z,36.20
2018-12-18T18:56:49.113Z,37.77
2018-12-18T18:59:17.272Z,36.60
2018-12-18T19:01:45.501Z,37.30
2018-12-18T19:04:13.717Z,36.60
2018-12-18T19:06:42.130Z,36.03
2018-12-18T19:09:10.342Z,35.80
2018-12-18T19:11:38.553Z,37.20
2018-12-18T19:14:06.749Z,34.90
2018-12-18T19:16:34.955Z,36.23
2018-12-18T19:19:03.327Z,35.97
2018-12-18T19:21:31.496Z,34.83
2018-12-18T19:23:59.661Z,34.83
2018-12-18T19:26:27.889Z,35.83
2018-12-18T19:28:56.062Z,35.03
2018-12-18T19:31:24.245Z,35.10
2018-12-18T19:33:52.448Z,34.70
2018-12-18T19:36:20.637Z,33.30
2018-12-18T19:38:48.836Z,33.43
2018-12-18T19:41:17.029Z,33.00
2018-12-18T19:43:45.960Z,33.37
2018-12-18T19:46:14.277Z,34.63
2018-12-18T19:48:42.656Z,34.43
2018-12-18T19:51:10.864Z,33.90
2018-12-18T19:53:39.116Z,34.13
2018-12-18T19:56:07.333Z,35.47
2018-12-18T19:58:35.505Z,34.10
2018-12-18T20:01:03.824Z,33.70
2018-12-18T20:03:31.996Z,32.50
2018-12-18T20:06:00.200Z,31.77
2018-12-18T20:08:28.360Z,33.73
2018-12-18T20:10:56.592Z,34.00
2018-12-18T20:13:24.764Z,32.93
2018-12-18T20:15:52.986Z,31.60
2018-12-18T20:18:21.196Z,32.23
2018-12-18T20:20:49.448Z,35.03
2018-12-18T20:23:17.668Z,32.63
2018-12-18T20:25:46.136Z,31.93
2018-12-18T20:28:14.315Z,31.80
2018-12-18T20:30:42.532Z,30.90
2018-12-18T20:33:10.700Z,32.83
2018-12-18T20:35:38.898Z,31.30
2018-12-18T20:38:07.120Z,32.20
2018-12-18T20:40:35.297Z,29.63
2018-12-18T20:43:03.564Z,28.50
2018-12-18T20:45:31.776Z,29.37
2018-12-18T20:48:00.852Z,29.00
2018-12-18T20:50:29.077Z,29.67
2018-12-18T20:52:57.296Z,30.00
2018-12-18T20:55:25.455Z,30.80
2018-12-18T20:57:53.629Z,30.60
2018-12-18T21:00:21.844Z,31.10
2018-12-18T21:02:50.028Z,29.63
2018-12-18T21:05:18.336Z,28.00
2018-12-18T21:07:47.152Z,29.00
2018-12-18T21:10:15.355Z,29.40
2018-12-18T21:12:43.669Z,30.60
2018-12-18T21:15:11.929Z,28.33
2018-12-18T21:17:40.106Z,27.53
2018-12-18T21:20:08.925Z,27.80
2018-12-18T21:22:37.097Z,26.30
2018-12-18T21:25:06.132Z,27.37
2018-12-18T21:27:34.384Z,26.07
2018-12-18T21:30:02.709Z,27.30
2018-12-18T21:32:31.000Z,27.20
2018-12-18T21:34:59.220Z,27.20
2018-12-18T21:37:27.412Z,28.70
2018-12-18T21:39:55.592Z,27.53
2018-12-18T21:42:23.808Z,28.90
2018-12-18T21:44:52.220Z,29.50
2018-12-18T21:47:20.400Z,30.07
2018-12-18T21:49:48.669Z,28.77
2018-12-18T21:52:16.980Z,28.30
2018-12-18T21:54:45.197Z,28.17
2018-12-18T21:57:13.400Z,28.70
2018-12-18T21:59:41.604Z,28.50
2018-12-18T22:02:09.804Z,29.90
2018-12-18T22:04:38.031Z,28.07
2018-12-18T22:07:05.968Z,30.57
2018-12-18T22:09:34.141Z,29.60
2018-12-18T22:12:02.348Z,29.80
2018-12-18T22:14:30.564Z,29.27
2018-12-18T22:16:58.776Z,30.03
2018-12-18T22:19:26.983Z,30.23
2018-12-18T22:21:55.208Z,31.30
2018-12-18T22:24:23.426Z,30.30
2018-12-18T22:26:51.599Z,30.37
2018-12-18T22:29:19.768Z,29.10
2018-12-18T22:31:47.976Z,30.87
2018-12-18T22:34:16.152Z,30.17
2018-12-18T22:36:44.357Z,30.70
2018-12-18T22:39:12.521Z,29.63
2018-12-18T22:41:40.729Z,30.43
2018-12-18T22:44:09.027Z,30.03
2018-12-18T22:46:37.231Z,30.33
2018-12-18T22:49:05.433Z,34.23
2018-12-18T22:51:33.698Z,32.60
2018-12-18T22:54:01.872Z,33.77
2018-12-18T22:56:30.056Z,32.20
2018-12-18T22:58:58.272Z,32.13
2018-12-18T23:01:31.781Z,31.83
2018-12-18T23:03:59.997Z,31.50
2018-12-18T23:06:28.201Z,32.37
2018-12-18T23:08:56.400Z,34.50
2018-12-18T23:11:24.572Z,34.37
2018-12-18T23:13:52.792Z,33.20
2018-12-18T23:16:20.972Z,32.57
2018-12-18T23:18:49.146Z,34.00
2018-12-18T23:21:17.371Z,32.37
2018-12-18T23:23:45.549Z,35.13
2018-12-18T23:26:13.716Z,34.90
2018-12-18T23:28:41.919Z,36.33
2018-12-18T23:31:10.237Z,35.73
2018-12-18T23:33:38.408Z,35.70
2018-12-18T23:36:06.620Z,34.17
2018-12-18T23:38:34.836Z,35.43
2018-12-18T23:41:03.198Z,34.53
2018-12-18T23:43:31.425Z,34.03
2018-12-18T23:45:59.604Z,35.00
2018-12-18T23:48:27.788Z,36.47
2018-12-18T23:50:56.000Z,35.07
2018-12-18T23:53:24.223Z,35.17
2018-12-18T23:55:52.388Z,37.90
2018-12-18T23:58:20.717Z,36.13
